Time;durP1;ratioP1;P1;durP2;ratioP2;P2;SDS_P1;SDS_P2;PMS_P1;PMS_P2;Temp;Humidity;BMP_temperature;BMP_pressure;BME280_temperature;BME280_humidity;BME280_pressure;Samples;Min_cycle;Max_cycle;Signal;HPM_P1;HPM_P2
2022/08/10 00:00:50;;;;;;;3.70;3.30;;;21.50;99.90;;;;;;5075394;28;20632;-74
2022/08/10 00:03:17;;;;;;;9.63;3.20;;;21.60;99.90;;;;;;5074398;28;21180;-73
2022/08/10 00:05:43;;;;;;;2.90;2.60;;;21.70;99.90;;;;;;5075402;28;20642;-74
2022/08/10 00:08:09;;;;;;;4.63;3.00;;;21.80;99.90;;;;;;5075440;28;20574;-75
2022/08/10 00:10:36;;;;;;;3.43;3.13;;;21.80;99.90;;;;;;5075604;28;20632;-73
2022/08/10 00:13:02;;;;;;;3.10;2.90;;;21.70;99.90;;;;;;5075484;28;20610;-73
2022/08/10 00:15:29;;;;;;;3.73;3.40;;;21.70;99.90;;;;;;5075258;28;20586;-73
2022/08/10 00:17:55;;;;;;;7.77;3.53;;;21.60;99.90;;;;;;5075289;28;20988;-74
2022/08/10 00:20:22;;;;;;;7.00;2.97;;;21.50;99.90;;;;;;5075167;28;20633;-73
2022/08/10 00:22:48;;;;;;;5.70;2.87;;;21.50;99.90;;;;;;5075268;28;20586;-73
2022/08/10 00:25:14;;;;;;;3.33;2.90;;;21.40;99.90;;;;;;5074970;28;21123;-74
2022/08/10 00:27:41;;;;;;;8.50;3.40;;;21.40;99.90;;;;;;5075217;28;20611;-73
2022/08/10 00:30:08;;;;;;;3.17;2.97;;;21.30;99.90;;;;;;5075146;28;20697;-73
2022/08/10 00:32:34;;;;;;;5.83;3.90;;;21.20;99.90;;;;;;5075102;28;20998;-73
2022/08/10 00:35:01;;;;;;;3.03;2.83;;;21.20;99.90;;;;;;5075121;28;20601;-73
2022/08/10 00:37:27;;;;;;;3.33;2.90;;;21.20;99.90;;;;;;5074868;28;20672;-73
2022/08/10 00:39:54;;;;;;;3.13;2.80;;;21.20;99.90;;;;;;5075112;28;20679;-73
2022/08/10 00:42:21;;;;;;;3.80;2.63;;;21.20;99.90;;;;;;5074721;28;21153;-73
2022/08/10 00:44:52;;;;;;;8.33;3.03;;;21.10;99.90;;;;;;5074972;28;20578;-73
2022/08/10 00:47:19;;;;;;;4.33;3.00;;;21.10;99.90;;;;;;5074893;28;20621;-74
2022/08/10 00:49:46;;;;;;;4.40;2.97;;;21.00;99.90;;;;;;5074983;28;20574;-73
2022/08/10 00:52:14;;;;;;;3.00;2.80;;;21.00;99.90;;;;;;5073164;28;20622;-73
2022/08/10 00:54:42;;;;;;;2.90;2.70;;;21.00;99.90;;;;;;5074692;28;20589;-73
2022/08/10 00:57:10;;;;;;;3.10;2.90;;;21.00;99.90;;;;;;5074452;28;20598;-73
2022/08/10 00:59:37;;;;;;;3.47;2.30;;;21.00;99.90;;;;;;5074778;28;20577;-73
2022/08/10 01:02:03;;;;;;;3.50;2.90;;;21.00;99.90;;;;;;5074531;28;20637;-72
2022/08/10 01:04:30;;;;;;;7.27;2.80;;;21.00;99.90;;;;;;5074561;28;20663;-71
2022/08/10 01:07:14;;;;;;;4.70;2.57;;;21.00;99.90;;;;;;5074619;28;20577;-71
2022/08/10 01:10:19;;;;;;;3.93;2.63;;;20.90;99.90;;;;;;5074464;28;20590;-71
2022/08/10 01:13:08;;;;;;;3.43;2.20;;;20.80;99.90;;;;;;5052080;28;20627;-71
2022/08/10 01:15:39;;;;;;;6.40;3.00;;;20.80;99.90;;;;;;5073583;28;20614;-71
2022/08/10 01:18:22;;;;;;;3.17;2.87;;;20.80;99.90;;;;;;5074119;28;20586;-72
2022/08/10 01:21:25;;;;;;;3.73;2.77;;;20.70;99.90;;;;;;5074152;28;20630;-71
2022/08/10 01:24:11;;;;;;;2.83;2.63;;;20.60;99.90;;;;;;5073576;28;20633;-72
2022/08/10 01:27:32;;;;;;;3.10;2.60;;;20.70;99.90;;;;;;5074146;28;20684;-72
2022/08/10 01:30:03;;;;;;;3.43;2.90;;;20.70;99.90;;;;;;5051518;28;20638;-71
2022/08/10 01:32:46;;;;;;;4.40;2.87;;;20.70;99.90;;;;;;5072913;28;20614;-71
2022/08/10 01:35:24;;;;;;;3.27;3.00;;;20.70;99.90;;;;;;5073757;28;20618;-71
2022/08/10 01:38:15;;;;;;;3.37;2.60;;;20.70;99.90;;;;;;5073912;28;20629;-71
2022/08/10 01:40:48;;;;;;;3.07;2.77;;;20.70;99.90;;;;;;5073602;28;20687;-71
2022/08/10 01:43:18;;;;;;;2.70;2.43;;;20.80;99.90;;;;;;5073824;28;20578;-71
2022/08/10 01:45:54;;;;;;;3.03;2.70;;;20.80;99.90;;;;;;5073799;28;20590;-71
2022/08/10 01:48:33;;;;;;;4.33;2.43;;;20.90;99.90;;;;;;5073502;28;20589;-71
2022/08/10 01:51:20;;;;;;;2.70;2.60;;;20.70;99.90;;;;;;5073626;28;20633;-71
2022/08/10 01:53:55;;;;;;;2.53;2.43;;;20.70;99.90;;;;;;5073590;28;20582;-71
2022/08/10 01:56:24;;;;;;;2.53;2.43;;;20.60;99.90;;;;;;5073146;28;20589;-71
2022/08/10 01:59:01;;;;;;;3.43;2.97;;;20.50;99.90;;;;;;5072120;28;20578;-71
2022/08/10 02:01:31;;;;;;;2.80;2.50;;;20.30;99.90;;;;;;5073491;28;20638;-71
2022/08/10 02:04:03;;;;;;;3.33;3.10;;;20.20;99.90;;;;;;5073214;28;20693;-71
2022/08/10 02:06:31;;;;;;;3.80;2.93;;;20.10;99.90;;;;;;5073023;28;20973;-71
2022/08/10 02:08:59;;;;;;;5.03;3.03;;;20.10;99.90;;;;;;5073256;28;20571;-71
2022/08/10 02:11:28;;;;;;;3.17;2.90;;;20.10;99.90;;;;;;5073135;28;20610;-72
2022/08/10 02:13:57;;;;;;;3.30;3.00;;;20.00;99.90;;;;;;5073084;28;20585;-71
2022/08/10 02:16:26;;;;;;;3.07;2.87;;;20.00;99.90;;;;;;5073353;28;20578;-72
2022/08/10 02:18:54;;;;;;;6.00;2.80;;;20.00;99.90;;;;;;5073353;28;21077;-71
2022/08/10 02:21:23;;;;;;;3.00;2.80;;;19.90;99.90;;;;;;5073126;28;20649;-72
2022/08/10 02:23:50;;;;;;;3.23;2.37;;;19.90;99.90;;;;;;5071596;28;20708;-71
2022/08/10 02:26:17;;;;;;;3.00;2.53;;;19.90;99.90;;;;;;5071880;28;20614;-71
2022/08/10 02:28:44;;;;;;;4.00;2.87;;;19.80;99.90;;;;;;5072980;28;20610;-71
2022/08/10 02:31:15;;;;;;;4.07;2.63;;;19.80;99.90;;;;;;5073118;28;20915;-71
2022/08/10 02:33:45;;;;;;;3.30;2.93;;;19.80;99.90;;;;;;5072844;28;20597;-71
2022/08/10 02:36:12;;;;;;;3.00;2.53;;;19.80;99.90;;;;;;5071887;28;20582;-72
2022/08/10 02:38:54;;;;;;;2.80;2.60;;;19.80;99.90;;;;;;5072652;28;21020;-71
2022/08/10 02:41:46;;;;;;;2.80;2.70;;;19.80;99.90;;;;;;5072642;28;20665;-71
2022/08/10 02:44:24;;;;;;;3.83;3.00;;;19.80;99.90;;;;;;5070175;28;21065;-71
2022/08/10 02:47:10;;;;;;;3.50;3.20;;;19.80;99.90;;;;;;5072929;28;20679;-71
2022/08/10 02:49:41;;;;;;;5.00;3.30;;;19.90;99.90;;;;;;5073071;28;20614;-72
2022/08/10 02:52:19;;;;;;;7.47;3.03;;;19.80;99.90;;;;;;5073036;28;20578;-71
2022/08/10 02:55:01;;;;;;;2.53;2.43;;;19.80;99.90;;;;;;5072542;28;20640;-71
2022/08/10 02:57:35;;;;;;;6.30;2.53;;;19.80;99.90;;;;;;5071631;28;20672;-71
2022/08/10 03:00:06;;;;;;;2.93;2.73;;;19.80;99.90;;;;;;5073054;28;20629;-71
2022/08/10 03:02:37;;;;;;;3.20;3.00;;;19.70;99.90;;;;;;5072273;28;20670;-71
2022/08/10 03:05:10;;;;;;;2.80;2.70;;;19.70;99.90;;;;;;5072889;28;20706;-72
2022/08/10 03:08:00;;;;;;;12.83;3.90;;;19.70;99.90;;;;;;5072520;28;20566;-71
2022/08/10 03:10:35;;;;;;;8.00;3.83;;;19.70;99.90;;;;;;5072837;28;20577;-71
2022/08/10 03:13:08;;;;;;;5.10;2.73;;;19.60;99.90;;;;;;5071400;28;20618;-71
2022/08/10 03:15:37;;;;;;;7.30;2.90;;;19.60;99.90;;;;;;5072854;28;20610;-72
2022/08/10 03:18:04;;;;;;;6.63;3.67;;;19.60;99.90;;;;;;5072401;28;20909;-72
2022/08/10 03:20:35;;;;;;;3.57;3.03;;;19.50;99.90;;;;;;5072617;28;21003;-71
2022/08/10 03:23:04;;;;;;;11.40;3.50;;;19.50;99.90;;;;;;5072477;28;20571;-72
2022/08/10 03:25:32;;;;;;;3.70;3.40;;;19.50;99.90;;;;;;5072733;28;20990;-71
2022/08/10 03:27:59;;;;;;;3.50;3.20;;;19.50;99.90;;;;;;5072344;28;20626;-71
2022/08/10 03:30:26;;;;;;;3.93;3.37;;;19.40;99.90;;;;;;5072227;28;20594;-71
2022/08/10 03:32:55;;;;;;;4.63;3.00;;;19.30;99.90;;;;;;5071356;28;20651;-71
2022/08/10 03:35:23;;;;;;;4.20;3.47;;;19.20;99.90;;;;;;5072321;28;20700;-71
2022/08/10 03:37:49;;;;;;;3.37;2.80;;;19.10;99.90;;;;;;5072433;28;20977;-71
2022/08/10 03:40:16;;;;;;;3.43;3.13;;;19.10;99.90;;;;;;5072699;28;20652;-71
2022/08/10 03:42:44;;;;;;;3.20;3.00;;;19.10;99.90;;;;;;5072220;28;20628;-71
2022/08/10 03:45:11;;;;;;;4.50;3.27;;;19.20;99.90;;;;;;5072257;28;21091;-71
2022/08/10 03:47:41;;;;;;;3.80;3.50;;;19.00;99.90;;;;;;5073830;28;20557;-71
2022/08/10 03:50:09;;;;;;;3.50;3.30;;;19.00;99.90;;;;;;5076110;28;20676;-71
2022/08/10 03:52:36;;;;;;;16.93;3.20;;;19.00;99.90;;;;;;5075623;28;20629;-71
2022/08/10 03:55:04;;;;;;;9.33;3.40;;;19.00;99.90;;;;;;5075690;28;20620;-71
2022/08/10 03:57:30;;;;;;;3.60;3.30;;;18.90;99.90;;;;;;5075774;28;20574;-71
2022/08/10 03:59:57;;;;;;;4.50;2.80;;;18.90;99.90;;;;;;5076030;28;20575;-72
2022/08/10 04:02:25;;;;;;;3.93;3.57;;;18.90;99.90;;;;;;5074176;28;21064;-71
2022/08/10 04:04:51;;;;;;;3.70;3.40;;;18.80;99.90;;;;;;5075554;28;21048;-71
2022/08/10 04:07:18;;;;;;;4.17;3.30;;;18.80;99.90;;;;;;5075515;28;20620;-71
2022/08/10 04:09:44;;;;;;;6.30;3.07;;;18.80;99.90;;;;;;5075709;28;20664;-71
2022/08/10 04:12:11;;;;;;;4.53;3.40;;;18.70;99.90;;;;;;5076055;28;20570;-71
2022/08/10 04:14:37;;;;;;;5.70;4.20;;;18.70;99.90;;;;;;5075413;28;21132;-71
2022/08/10 04:17:04;;;;;;;3.97;3.67;;;18.70;99.90;;;;;;5075478;28;20651;-71
2022/08/10 04:19:41;;;;;;;5.53;3.57;;;18.80;99.90;;;;;;5075298;28;20696;-71
2022/08/10 04:22:17;;;;;;;4.60;3.57;;;18.70;99.90;;;;;;5073789;28;20639;-71
2022/08/10 04:24:46;;;;;;;7.80;3.70;;;18.70;99.90;;;;;;5075532;28;20637;-71
2022/08/10 04:27:14;;;;;;;4.40;3.47;;;18.70;99.90;;;;;;5075172;28;20582;-71
2022/08/10 04:29:42;;;;;;;3.93;3.03;;;18.70;99.90;;;;;;5073814;28;20650;-71
2022/08/10 04:32:09;;;;;;;7.83;3.40;;;18.70;99.90;;;;;;5075306;28;20584;-71
2022/08/10 04:34:41;;;;;;;9.97;3.07;;;18.70;99.90;;;;;;5075155;28;21249;-71
2022/08/10 04:37:10;;;;;;;3.50;3.20;;;18.70;99.90;;;;;;5075310;28;20583;-72
2022/08/10 04:39:37;;;;;;;3.30;3.00;;;18.70;99.90;;;;;;5075194;28;20664;-72
2022/08/10 04:42:05;;;;;;;3.30;3.00;;;18.70;99.90;;;;;;5074769;28;20622;-71
2022/08/10 04:44:32;;;;;;;6.53;3.40;;;18.60;99.90;;;;;;5075151;28;20924;-71
2022/08/10 04:46:58;;;;;;;13.70;4.10;;;18.70;99.90;;;;;;5074855;28;20591;-71
2022/08/10 04:49:25;;;;;;;8.23;4.10;;;18.60;99.90;;;;;;5075091;28;20581;-71
2022/08/10 04:51:52;;;;;;;6.33;3.47;;;18.70;99.90;;;;;;5074513;28;21026;-72
2022/08/10 04:54:18;;;;;;;4.50;3.43;;;18.70;99.90;;;;;;5074914;28;20614;-72
2022/08/10 04:56:44;;;;;;;3.03;2.80;;;18.70;99.90;;;;;;5074691;28;20578;-71
2022/08/10 04:59:11;;;;;;;5.50;3.10;;;18.80;99.90;;;;;;5073826;28;20583;-72
2022/08/10 05:01:39;;;;;;;7.93;3.50;;;18.60;99.90;;;;;;5074286;28;20630;-72
2022/08/10 05:04:05;;;;;;;4.07;3.63;;;18.70;99.90;;;;;;5074538;28;20615;-72
2022/08/10 05:06:32;;;;;;;5.77;3.10;;;18.70;99.90;;;;;;5074017;28;21074;-72
2022/08/10 05:08:59;;;;;;;7.30;3.67;;;18.80;99.90;;;;;;5073507;28;20578;-72
2022/08/10 05:11:25;;;;;;;6.27;3.60;;;18.80;99.90;;;;;;5074246;28;20621;-72
2022/08/10 05:13:52;;;;;;;6.60;3.10;;;18.90;99.90;;;;;;5074157;28;20626;-72
2022/08/10 05:16:18;;;;;;;3.40;2.97;;;18.90;99.90;;;;;;5074075;28;20626;-72
2022/08/10 05:18:45;;;;;;;4.67;3.63;;;19.00;99.90;;;;;;5074274;28;20659;-71
2022/08/10 05:21:11;;;;;;;4.53;3.27;;;19.00;99.90;;;;;;5074157;28;20574;-72
2022/08/10 05:23:37;;;;;;;9.40;3.83;;;19.10;99.90;;;;;;5074441;28;20650;-72
2022/08/10 05:26:04;;;;;;;5.73;3.53;;;19.10;99.90;;;;;;5073706;28;20953;-72
2022/08/10 05:28:31;;;;;;;4.47;3.20;;;19.30;99.90;;;;;;5074088;28;20936;-72
2022/08/10 05:30:57;;;;;;;3.67;3.33;;;19.40;99.90;;;;;;5073893;28;20626;-72
2022/08/10 05:33:24;;;;;;;14.43;3.23;;;19.50;99.90;;;;;;5074207;28;20651;-71
2022/08/10 05:35:50;;;;;;;6.93;3.20;;;19.60;99.90;;;;;;5073856;28;20585;-71
2022/08/10 05:38:19;;;;;;;3.60;3.10;;;19.70;99.90;;;;;;5074149;28;20598;-72
2022/08/10 05:40:48;;;;;;;4.53;3.47;;;19.80;99.90;;;;;;5073699;28;20577;-72
2022/08/10 05:43:17;;;;;;;9.40;4.10;;;19.90;99.90;;;;;;5073477;28;20970;-72
2022/08/10 05:45:43;;;;;;;4.03;3.50;;;20.00;99.90;;;;;;5072051;28;20606;-72
2022/08/10 05:48:10;;;;;;;14.63;4.10;;;20.00;99.90;;;;;;5073641;28;20660;-72
2022/08/10 05:50:36;;;;;;;4.50;3.17;;;20.10;99.90;;;;;;5073341;28;20578;-71
2022/08/10 05:53:03;;;;;;;4.07;3.23;;;20.20;99.90;;;;;;5073281;28;20929;-71
2022/08/10 05:55:31;;;;;;;12.97;3.97;;;20.30;99.90;;;;;;5073471;28;20622;-75
2022/08/10 05:57:59;;;;;;;5.00;3.47;;;20.30;99.90;;;;;;5073708;28;20618;-74
2022/08/10 06:00:26;;;;;;;6.33;3.10;;;20.50;99.90;;;;;;5073423;28;20583;-73
2022/08/10 06:03:00;;;;;;;3.37;3.20;;;20.40;99.90;;;;;;5072862;28;20668;-76
2022/08/10 06:05:29;;;;;;;9.27;3.37;;;20.50;99.90;;;;;;5073046;28;21287;-74
2022/08/10 06:08:15;;;;;;;5.23;2.90;;;20.70;99.90;;;;;;5072893;28;20614;-73
2022/08/10 06:10:44;;;;;;;4.73;4.03;;;20.80;99.90;;;;;;5071949;28;20629;-72
2022/08/10 06:15:59;;;;;;;10.30;3.23;;;20.90;99.90;;;;;;5073304;28;20655;-74
2022/08/10 06:18:26;;;;;;;6.70;3.43;;;21.00;99.90;;;;;;5073228;28;20589;-73
2022/08/10 06:20:54;;;;;;;3.70;2.80;;;21.10;99.90;;;;;;5072176;28;20586;-72
2022/08/10 06:23:24;;;;;;;6.43;3.17;;;21.20;99.90;;;;;;5072697;28;20664;-71
2022/08/10 06:25:50;;;;;;;2.93;2.73;;;21.30;99.90;;;;;;5072481;28;21182;-72
2022/08/10 06:28:18;;;;;;;4.30;3.13;;;21.40;99.90;;;;;;5073024;28;20629;-73
2022/08/10 06:30:46;;;;;;;4.73;2.97;;;21.60;99.90;;;;;;5072857;28;20581;-73
2022/08/10 06:33:14;;;;;;;5.97;3.00;;;21.60;99.90;;;;;;5072582;28;20586;-72
2022/08/10 06:35:42;;;;;;;7.80;3.30;;;21.70;99.90;;;;;;5072700;28;20574;-72
2022/08/10 06:38:11;;;;;;;10.93;3.07;;;21.80;99.90;;;;;;5072485;28;20618;-72
2022/08/10 06:40:42;;;;;;;9.57;3.10;;;21.90;99.90;;;;;;5073067;28;20578;-72
2022/08/10 06:43:12;;;;;;;5.00;2.50;;;21.90;99.90;;;;;;5073017;28;20635;-75
2022/08/10 06:45:44;;;;;;;6.40;2.80;;;21.90;99.90;;;;;;5074327;28;20593;-72
2022/08/10 06:48:33;;;;;;;3.83;3.53;;;22.00;99.90;;;;;;5073051;28;20655;-71
2022/08/10 06:51:04;;;;;;;3.30;2.57;;;22.20;99.90;;;;;;5072636;28;20575;-70
2022/08/10 06:53:35;;;;;;;5.00;3.40;;;22.10;99.90;;;;;;5073179;28;21061;-72
2022/08/10 06:56:06;;;;;;;9.87;3.17;;;22.20;99.90;;;;;;5072603;28;20604;-69
2022/08/10 06:58:42;;;;;;;3.90;2.90;;;22.30;99.90;;;;;;5073154;28;20578;-71
2022/08/10 07:01:13;;;;;;;6.87;3.47;;;22.60;99.90;;;;;;5072895;28;20590;-73
2022/08/10 07:03:46;;;;;;;4.40;3.00;;;22.50;99.90;;;;;;5072534;28;21100;-72
2022/08/10 07:06:16;;;;;;;6.23;3.13;;;22.70;99.90;;;;;;5072500;28;20996;-69
2022/08/10 07:08:43;;;;;;;4.60;3.03;;;22.70;99.90;;;;;;5070934;28;21161;-71
2022/08/10 07:11:11;;;;;;;3.63;2.90;;;22.70;99.90;;;;;;5072438;28;20590;-68
2022/08/10 07:13:39;;;;;;;3.90;2.60;;;23.00;99.90;;;;;;5072350;28;20571;-70
2022/08/10 07:16:10;;;;;;;3.00;2.80;;;23.00;99.90;;;;;;5072409;28;20626;-71
2022/08/10 07:18:38;;;;;;;6.07;3.70;;;23.00;99.90;;;;;;5072238;28;20585;-72
2022/08/10 07:21:06;;;;;;;3.17;2.33;;;23.20;99.90;;;;;;5072768;28;20617;-73
2022/08/10 07:23:34;;;;;;;3.13;2.63;;;23.50;99.90;;;;;;5080184;28;20630;-75
2022/08/10 07:26:02;;;;;;;7.80;2.97;;;23.70;99.90;;;;;;5081129;28;20892;-75
2022/08/10 07:28:32;;;;;;;4.03;3.70;;;23.60;99.90;;;;;;5077045;28;20922;-74
2022/08/10 07:30:59;;;;;;;6.33;2.87;;;23.60;99.90;;;;;;5076643;28;20599;-74
2022/08/10 07:33:27;;;;;;;13.43;12.47;;;23.50;99.90;;;;;;5077036;28;20590;-71
2022/08/10 07:35:55;;;;;;;38.47;35.73;;;23.70;99.90;;;;;;5076379;28;20626;-76
2022/08/10 07:38:24;;;;;;;28.07;25.80;;;23.90;99.90;;;;;;5076154;28;20586;-71
2022/08/10 07:40:52;;;;;;;7.80;3.60;;;23.80;99.90;;;;;;5075743;28;20675;-69
2022/08/10 07:43:22;;;;;;;18.50;17.20;;;23.70;99.90;;;;;;5075880;28;20703;-70
2022/08/10 07:45:49;;;;;;;12.33;7.20;;;24.00;99.90;;;;;;5075792;28;20583;-71
2022/08/10 07:48:23;;;;;;;4.17;3.20;;;24.30;99.90;;;;;;5075794;28;20622;-70
2022/08/10 07:50:54;;;;;;;10.67;3.20;;;24.40;99.90;;;;;;5076123;28;20587;-72
2022/08/10 07:53:23;;;;;;;3.57;2.30;;;24.50;99.90;;;;;;5075532;28;21046;-73
2022/08/10 07:55:52;;;;;;;2.67;2.47;;;24.60;99.90;;;;;;5075662;28;20958;-75
2022/08/10 07:58:25;;;;;;;3.37;2.20;;;24.80;99.90;;;;;;5075530;28;20612;-75
2022/08/10 08:00:52;;;;;;;2.50;2.40;;;24.90;99.90;;;;;;5075784;28;20614;-75
2022/08/10 08:03:27;;;;;;;6.10;2.53;;;24.70;99.90;;;;;;5074162;28;20669;-76
2022/08/10 08:05:59;;;;;;;2.27;2.07;;;24.70;99.90;;;;;;5075631;28;20641;-74
2022/08/10 08:08:27;;;;;;;2.33;2.20;;;24.70;99.90;;;;;;5074040;28;20617;-74
2022/08/10 08:10:54;;;;;;;4.70;2.17;;;24.90;99.90;;;;;;5075268;28;20992;-75
2022/08/10 08:13:22;;;;;;;2.50;2.30;;;24.90;99.90;;;;;;5075352;28;20582;-74
2022/08/10 08:15:51;;;;;;;4.00;2.93;;;25.10;99.90;;;;;;5075332;28;20625;-74
2022/08/10 08:18:20;;;;;;;6.63;1.97;;;25.20;99.90;;;;;;5075194;28;20578;-74
2022/08/10 08:20:47;;;;;;;3.10;2.50;;;25.30;99.90;;;;;;5075482;28;20656;-74
2022/08/10 08:23:16;;;;;;;4.20;2.50;;;25.40;99.90;;;;;;5075040;28;20622;-72
2022/08/10 08:25:44;;;;;;;3.93;2.20;;;25.60;99.90;;;;;;5075092;28;20614;-71
2022/08/10 08:28:12;;;;;;;2.73;2.53;;;25.60;99.90;;;;;;5075251;28;20614;-71
2022/08/10 08:30:39;;;;;;;4.10;2.70;;;25.60;99.90;;;;;;5075119;28;20567;-71
2022/08/10 08:33:08;;;;;;;3.10;2.43;;;25.80;99.90;;;;;;5073981;28;20626;-71
2022/08/10 08:35:35;;;;;;;5.03;2.13;;;25.80;99.90;;;;;;5075017;28;20570;-70
2022/08/10 08:38:04;;;;;;;5.47;2.10;;;26.10;99.90;;;;;;5075173;28;20998;-74
2022/08/10 08:40:35;;;;;;;5.87;2.40;;;26.20;99.90;;;;;;5074932;28;20631;-74
2022/08/10 08:43:31;;;;;;;2.93;2.00;;;26.20;99.90;;;;;;5074751;28;21149;-74
2022/08/10 08:46:13;;;;;;;2.07;1.90;;;26.10;99.90;;;;;;5074136;28;21052;-74
2022/08/10 08:49:06;;;;;;;2.13;2.03;;;26.20;99.90;;;;;;5073327;28;20618;-73
2022/08/10 08:51:47;;;;;;;7.83;3.03;;;26.40;99.90;;;;;;5074588;28;21188;-72
2022/08/10 08:54:31;;;;;;;2.50;2.40;;;26.30;99.90;;;;;;5074895;28;20583;-73
2022/08/10 08:57:36;;;;;;;4.60;2.43;;;26.40;99.90;;;;;;5074610;28;20594;-73
2022/08/10 09:00:09;;;;;;;2.07;1.97;;;26.40;99.90;;;;;;5073673;28;20734;-73
2022/08/10 09:03:05;;;;;;;2.30;2.17;;;26.50;99.90;;;;;;5074914;28;20672;-74
2022/08/10 09:05:50;;;;;;;5.90;2.00;;;26.80;99.90;;;;;;5072975;28;20650;-75
2022/08/10 09:08:54;;;;;;;8.93;2.10;;;27.10;99.90;;;;;;5074472;28;20618;-75
2022/08/10 09:11:58;;;;;;;6.17;2.90;;;26.90;99.90;;;;;;5067917;28;20610;-75
2022/08/10 09:14:38;;;;;;;4.73;1.87;;;26.80;99.90;;;;;;5074351;28;20590;-75
2022/08/10 09:17:18;;;;;;;5.40;2.00;;;27.00;99.90;;;;;;5075202;28;21254;-76
2022/08/10 09:20:01;;;;;;;3.53;2.07;;;27.20;99.90;;;;;;5074530;28;20579;-76
2022/08/10 09:22:54;;;;;;;6.10;1.90;;;27.30;99.90;;;;;;5074266;28;20669;-74
2022/08/10 09:25:31;;;;;;;3.93;2.07;;;27.40;99.90;;;;;;5073863;28;21358;-74
2022/08/10 09:28:04;;;;;;;5.03;2.27;;;27.50;99.90;;;;;;5074473;28;20574;-73
2022/08/10 09:30:39;;;;;;;7.20;2.67;;;27.20;99.90;;;;;;5073859;28;20597;-74
2022/08/10 09:33:15;;;;;;;6.43;2.10;;;27.20;99.90;;;;;;5073715;28;20597;-73
2022/08/10 09:35:47;;;;;;;7.80;2.30;;;27.40;1.00;;;;;;5073972;28;20586;-74
2022/08/10 09:39:04;;;;;;;6.20;2.00;;;27.40;1.00;;;;;;5073726;28;20600;-73
2022/08/10 09:42:00;;;;;;;5.50;2.23;;;27.30;1.00;;;;;;5064318;28;20691;-74
2022/08/10 09:44:51;;;;;;;3.10;1.63;;;27.60;1.00;;;;;;5073408;28;20618;-74
2022/08/10 09:48:25;;;;;;;2.23;2.03;;;27.80;1.00;;;;;;5073426;28;20618;-70
2022/08/10 09:51:13;;;;;;;2.53;1.97;;;27.90;1.00;;;;;;5030813;28;20624;-70
2022/08/10 09:53:48;;;;;;;4.47;2.00;;;28.10;1.00;;;;;;5031044;28;20616;-71
2022/08/10 09:56:35;;;;;;;2.53;2.17;;;27.90;1.00;;;;;;5058971;28;20668;-70
2022/08/10 09:59:29;;;;;;;2.30;1.80;;;27.80;1.00;;;;;;5073520;28;20640;-70
2022/08/10 10:02:32;;;;;;;2.70;2.43;;;27.60;1.00;;;;;;5073173;28;20586;-71
2022/08/10 10:05:28;;;;;;;2.63;1.90;;;28.00;1.00;;;;;;5072871;28;21247;-71
2022/08/10 10:08:06;;;;;;;5.00;2.50;;;28.20;1.00;;;;;;5072962;28;20625;-71
2022/08/10 10:10:45;;;;;;;8.43;2.67;;;28.30;1.00;;;;;;5073436;28;21172;-71
2022/08/10 10:13:35;;;;;;;9.43;2.50;;;28.10;1.00;;;;;;5074061;28;20582;-71
2022/08/10 10:16:39;;;;;;;4.80;2.40;;;28.40;1.00;;;;;;5073577;28;20602;-71
2022/08/10 10:19:38;;;;;;;2.30;2.10;;;28.40;1.00;;;;;;5073508;28;20589;-71
2022/08/10 10:22:34;;;;;;;2.90;2.70;;;28.50;1.00;;;;;;5073012;28;20661;-71
2022/08/10 10:25:05;;;;;;;7.03;2.60;;;28.70;1.00;;;;;;5073016;28;21051;-71
2022/08/10 10:27:35;;;;;;;3.43;2.30;;;28.40;1.00;;;;;;5073355;28;20713;-71
2022/08/10 10:30:10;;;;;;;5.60;2.13;;;28.40;1.00;;;;;;5073169;28;20598;-71
2022/08/10 10:32:59;;;;;;;3.40;2.10;;;28.30;1.00;;;;;;5071981;28;20694;-71
2022/08/10 10:35:34;;;;;;;2.73;2.13;;;28.30;1.00;;;;;;5074102;28;20583;-71
2022/08/10 10:38:03;;;;;;;8.00;2.80;;;28.60;1.00;;;;;;5074127;28;20590;-71
2022/08/10 10:40:40;;;;;;;5.90;2.50;;;29.00;1.00;;;;;;5074313;28;20633;-71
2022/08/10 10:43:35;;;;;;;5.30;2.20;;;29.00;1.00;;;;;;5073374;28;21187;-71
2022/08/10 10:46:21;;;;;;;10.90;2.60;;;28.90;1.00;;;;;;5073762;28;20875;-71
2022/08/10 10:49:05;;;;;;;4.40;1.83;;;28.90;1.00;;;;;;5074475;28;20633;-71
2022/08/10 10:51:42;;;;;;;2.00;1.90;;;29.00;1.00;;;;;;5074243;28;20701;-71
2022/08/10 10:54:31;;;;;;;4.37;2.50;;;29.20;1.00;;;;;;5073755;28;20984;-71
2022/08/10 10:57:05;;;;;;;2.10;2.00;;;29.20;1.00;;;;;;5074947;28;20579;-71
2022/08/10 10:59:55;;;;;;;2.93;2.20;;;29.20;1.00;;;;;;5078260;28;20581;-71
2022/08/10 11:02:42;;;;;;;8.10;2.13;;;29.60;1.00;;;;;;5077776;28;20590;-71
2022/08/10 11:05:33;;;;;;;5.10;2.67;;;29.30;1.00;;;;;;5077481;28;20649;-71
2022/08/10 11:08:23;;;;;;;3.93;2.60;;;29.20;1.00;;;;;;5078149;28;20655;-71
2022/08/10 11:11:00;;;;;;;2.30;2.10;;;29.50;1.00;;;;;;5077730;28;20562;-71
2022/08/10 11:13:51;;;;;;;3.07;2.77;;;29.50;1.00;;;;;;5078019;28;20574;-71
2022/08/10 11:16:36;;;;;;;3.80;2.47;;;29.30;1.00;;;;;;5077867;28;20582;-71
2022/08/10 11:19:34;;;;;;;3.47;1.80;;;29.20;1.00;;;;;;5075454;28;20626;-71
2022/08/10 11:22:26;;;;;;;6.90;2.30;;;29.50;1.00;;;;;;5077425;28;21090;-71
2022/08/10 11:25:14;;;;;;;7.03;2.40;;;29.80;1.00;;;;;;5076693;28;20656;-71
2022/08/10 11:27:53;;;;;;;6.03;2.73;;;30.20;1.00;;;;;;5076753;28;21087;-71
2022/08/10 11:30:43;;;;;;;5.17;2.37;;;29.90;1.00;;;;;;5077190;28;21135;-72
2022/08/10 11:33:31;;;;;;;4.47;4.07;;;30.30;1.00;;;;;;5076773;28;21165;-73
2022/08/10 11:36:06;;;;;;;5.70;2.50;;;30.50;1.00;;;;;;5077493;28;20586;-71
2022/08/10 11:38:51;;;;;;;5.53;2.60;;;30.30;1.00;;;;;;5077915;28;20558;-73
2022/08/10 11:41:44;;;;;;;9.57;2.57;;;30.50;1.00;;;;;;5077189;28;20755;-74
2022/08/10 11:44:22;;;;;;;4.60;2.00;;;31.10;1.00;;;;;;5077099;28;20630;-72
2022/08/10 11:47:03;;;;;;;3.53;2.00;;;30.90;1.00;;;;;;5077336;28;20636;-71
2022/08/10 11:49:45;;;;;;;6.20;2.10;;;30.60;1.00;;;;;;5077452;28;20591;-71
2022/08/10 11:52:24;;;;;;;6.70;2.30;;;30.70;1.00;;;;;;5076015;28;20600;-71
2022/08/10 11:54:54;;;;;;;3.20;2.03;;;30.40;1.00;;;;;;5076468;28;20936;-71
2022/08/10 11:57:28;;;;;;;3.40;2.10;;;31.00;1.00;;;;;;5075459;28;20618;-71
2022/08/10 11:59:57;;;;;;;3.63;2.20;;;31.80;1.00;;;;;;5075901;28;20626;-71
2022/08/10 12:02:31;;;;;;;3.63;3.33;;;32.00;1.00;;;;;;5076314;28;20589;-71
2022/08/10 12:05:09;;;;;;;5.93;2.60;;;31.90;1.00;;;;;;5076104;28;20641;-71
2022/08/10 12:07:43;;;;;;;5.20;2.10;;;32.40;1.00;;;;;;5076627;28;20594;-71
2022/08/10 12:10:12;;;;;;;2.30;2.20;;;32.60;1.00;;;;;;5076914;28;20570;-71
2022/08/10 12:12:49;;;;;;;4.73;2.97;;;32.50;1.00;;;;;;5077338;28;20575;-71
2022/08/10 12:15:26;;;;;;;8.33;2.27;;;32.60;1.00;;;;;;5076086;28;21113;-71
2022/08/10 12:18:00;;;;;;;5.17;2.47;;;32.90;1.00;;;;;;5076706;28;20667;-71
2022/08/10 12:20:31;;;;;;;3.60;2.20;;;33.00;1.00;;;;;;5076228;28;20590;-71
2022/08/10 12:23:33;;;;;;;6.00;2.10;;;32.60;1.00;;;;;;5057809;28;21228;-72
2022/08/10 12:26:11;;;;;;;6.10;2.03;;;32.00;1.00;;;;;;5063299;28;20687;-73
2022/08/10 12:29:16;;;;;;;2.90;2.00;;;32.50;1.00;;;;;;5075436;28;20577;-73
2022/08/10 12:31:47;;;;;;;3.20;2.20;;;33.00;1.00;;;;;;5074446;28;20626;-73
2022/08/10 12:34:33;;;;;;;6.73;2.33;;;32.80;1.00;;;;;;5075271;28;20574;-72
2022/08/10 12:37:21;;;;;;;5.33;2.77;;;33.60;1.00;;;;;;5075500;28;20566;-72
2022/08/10 12:40:03;;;;;;;4.47;2.00;;;33.00;1.00;;;;;;5075373;28;20656;-72
2022/08/10 12:42:45;;;;;;;4.67;2.73;;;32.90;1.00;;;;;;5075279;28;20579;-72
2022/08/10 12:45:15;;;;;;;2.60;1.90;;;33.30;1.00;;;;;;5074769;28;20571;-72
2022/08/10 12:48:00;;;;;;;10.63;2.20;;;33.70;1.00;;;;;;5075045;28;20579;-72
2022/08/10 12:50:32;;;;;;;4.60;2.17;;;33.30;1.00;;;;;;5074542;28;20622;-72
2022/08/10 12:53:34;;;;;;;3.50;2.03;;;33.00;1.00;;;;;;5074651;28;21199;-71
2022/08/10 12:56:02;;;;;;;4.27;2.43;;;32.80;1.00;;;;;;5073510;28;20622;-71
2022/08/10 12:58:30;;;;;;;3.53;2.23;;;31.90;1.00;;;;;;5074848;28;20636;-71
2022/08/10 13:00:57;;;;;;;3.27;2.07;;;32.70;1.00;;;;;;5074570;28;20951;-72
2022/08/10 13:03:24;;;;;;;2.90;2.03;;;33.50;1.00;;;;;;5074696;28;20636;-72
2022/08/10 13:05:52;;;;;;;7.30;2.20;;;34.10;1.00;;;;;;5073193;28;20637;-72
2022/08/10 13:11:08;;;;;;;5.13;2.40;;;34.30;1.00;;;;;;5074591;28;20968;-72
2022/08/10 13:13:38;;;;;;;2.43;2.30;;;33.50;1.00;;;;;;5074662;28;20637;-72
2022/08/10 13:16:06;;;;;;;5.53;2.47;;;33.90;1.00;;;;;;5074215;28;20752;-71
2022/08/10 13:18:43;;;;;;;2.77;2.57;;;33.40;1.00;;;;;;5074572;28;20957;-72
2022/08/10 13:21:16;;;;;;;3.37;2.20;;;33.70;1.00;;;;;;5073232;28;20937;-72
2022/08/10 13:23:57;;;;;;;7.23;2.17;;;32.90;1.00;;;;;;5073985;28;20662;-72
2022/08/10 13:26:27;;;;;;;5.60;2.57;;;33.70;1.00;;;;;;5072936;28;20574;-72
2022/08/10 13:28:58;;;;;;;2.70;2.50;;;33.90;1.00;;;;;;5073875;28;20591;-72
2022/08/10 13:31:30;;;;;;;3.93;2.10;;;34.80;1.00;;;;;;5073886;28;20655;-71